Sanford, NC

6:05 AM EDT on September 22, 2014 (GMT -0400)
Raleigh Executive Jetport | Change Station
CLOSE
Current Station
Airport
Location: Sanford,
Elevation: 246 ft
Nearby Weather Stations

Elev 246 ft 35.58 °N, 79.10 °W | Updated 10 minutes ago

Clear
Clear
69 °F
Feels Like 69 °F
N
0
Wind Variable Wind from North

Today
High -- | Low -- °F
--% Chance of Precip.
Yesterday
High -- | Low -- °F
Precip. -- in
7:04 AM 7:13 PM
Waning Crescent, 3% visible
Pressure 29.95 in
Visibility 10.0 miles
Clouds Clear
Dew Point 57 °F
Humidity 66%
Rainfall 0.00 in
Snow Depth Not available.
UV 0 out of 12
Pollen 6.00 out of 12
PM2.5 Good
Flu Activity Not available.
METAR KTTA 220955Z AUTO 00000KT 10SM CLR 20/14 A2995 RMK AO2 T02040138

More Conditions Fewer Conditions

Pressure 29.95 in
Visibility 10.0 miles
Clouds Clear
Dew Point 57 °F
Humidity 66%
Rainfall 0.00 in
Snow Depth Not available.
UV 0 out of 12
Pollen 6.00 out of 12
PM2.5 Good
Flu Activity Not available.
METAR KTTA 220955Z AUTO 00000KT 10SM CLR 20/14 A2995 RMK AO2 T02040138

More Conditions Fewer Conditions

10-Day Weather Forecast

Almanac

Astronomy

Sep. 22, 2014 Rise Set
Actual Time 7:04 AM EDT 7:13 PM EDT
Civil Twilight 6:39 AM EDT 7:38 PM EDT
Nautical Twilight 6:09 AM EDT 8:08 PM EDT
Astronomical Twilight 5:39 AM EDT 8:38 PM EDT
Moon 5:34 AM EDT 6:18 PM EDT
Length of Visible Light 12h 59m
Length of Day
12h 08m
Tomorrow will be 2m 13s shorter.
Waning Crescent, 3% of the Moon is Illuminated
Today
Waning Crescent
Sep 24
New
Oct 1
First Quarter
Oct 8
Full
Oct 15
Last Quarter

Today's Extremes

State Highs State Lows

Community

WunderPhotos

Upload Photos

1,755,403 photos uploaded!

Nearby

Air Quality

  Air Quality AQ Index Pollutant
Yesterday Good
OZONE
Yesterday Good
PM2.5
Current Good
PM2.5
Monday Good
PM2.5
Monday Good
OZONE
Tuesday Good
PM2.5
Tuesday Good
OZONE
Wednesday Good
PM2.5
Wednesday Good
OZONE

Snow Depth

Station Depth Elevation
No new snow has been reported.

Earthquake Activity

City Distance Mag. Time & Date
No recent earthquake activity has been reported nearby.
Minimum magnitude displayed is 2.5.

Coastal Water Temperatures

Place Temperature
No Stations Reporting

Nearby Weather Stations